Time;durP1;ratioP1;P1;durP2;ratioP2;P2;SDS_P1;SDS_P2;PMS_P1;PMS_P2;Temp;Humidity;BMP_temperature;BMP_pressure;BME280_temperature;BME280_humidity;BME280_pressure;Samples;Min_cycle;Max_cycle;Signal;HPM_P1;HPM_P2
2022/08/22 00:01:27;;;;;;;;;;;;;;;23.10;50.92;101302.16;7286685;19;153195;-59
2022/08/22 00:04:02;;;;;;;;;;;;;;;23.13;50.28;101301.50;7284486;19;152702;-60
2022/08/22 00:06:52;;;;;;;;;;;;;;;23.09;50.56;101292.88;7286527;19;152189;-59
2022/08/22 00:09:31;;;;;;;;;;;;;;;23.06;50.68;101301.97;7284584;19;155312;-60
2022/08/22 00:12:22;;;;;;;;;;;;;;;23.11;50.33;101295.38;7286508;19;153014;-60
2022/08/22 00:14:55;;;;;;;;;;;;;;;23.10;50.79;101302.16;7291012;19;153961;-60
2022/08/22 00:17:37;;;;;;;;;;;;;;;23.08;50.75;101304.47;7287047;19;152389;-60
2022/08/22 00:20:12;;;;;;;;;;;;;;;23.06;50.71;101307.59;7285413;19;153040;-60
2022/08/22 00:22:47;;;;;;;;;;;;;;;23.10;50.35;101305.81;7284265;19;153272;-60
2022/08/22 00:25:34;;;;;;;;;;;;;;;23.08;50.55;101307.28;7286346;19;152186;-60
2022/08/22 00:28:05;;;;;;;;;;;;;;;23.05;50.66;101295.50;7285629;19;152398;-60
2022/08/22 00:30:36;;;;;;;;;;;;;;;23.08;50.33;101293.19;7285279;19;153785;-60
2022/08/22 00:33:09;;;;;;;;;;;;;;;23.04;50.49;101302.28;7284581;19;152080;-60
2022/08/22 00:35:43;;;;;;;;;;;;;;;23.10;50.55;101288.91;7283342;19;152718;-60
2022/08/22 00:38:18;;;;;;;;;;;;;;;23.07;50.58;101283.06;7291469;19;152538;-60
2022/08/22 00:41:00;;;;;;;;;;;;;;;23.04;50.64;101276.06;7286537;19;152182;-60
2022/08/22 00:43:29;;;;;;;;;;;;;;;23.07;50.74;101268.97;7283887;19;152914;-60
2022/08/22 00:46:01;;;;;;;;;;;;;;;23.04;50.75;101265.63;7287065;19;153698;-60
2022/08/22 00:48:31;;;;;;;;;;;;;;;23.05;50.26;101269.28;7285818;19;151960;-60
2022/08/22 00:51:30;;;;;;;;;;;;;;;23.08;50.43;101268.63;7283778;19;152805;-60
2022/08/22 00:54:04;;;;;;;;;;;;;;;23.07;50.55;101263.34;7282484;19;152856;-60
2022/08/22 00:56:51;;;;;;;;;;;;;;;23.05;50.74;101264.47;7287090;19;152034;-60
2022/08/22 00:59:23;;;;;;;;;;;;;;;23.10;50.40;101262.69;7283874;19;154325;-60
2022/08/22 01:01:51;;;;;;;;;;;;;;;23.09;50.27;101256.22;7293319;19;152218;-60
2022/08/22 01:04:25;;;;;;;;;;;;;;;23.07;50.27;101252.91;7280187;19;154582;-60
2022/08/22 01:07:02;;;;;;;;;;;;;;;23.07;50.50;101255.72;7280213;19;152906;-60
2022/08/22 01:09:30;;;;;;;;;;;;;;;23.06;50.33;101256.88;7283438;19;153014;-60
2022/08/22 01:11:57;;;;;;;;;;;;;;;23.11;50.17;101256.75;7283546;19;153295;-60
2022/08/22 01:14:33;;;;;;;;;;;;;;;23.05;50.59;101258.00;7284932;19;152183;-60
2022/08/22 01:17:13;;;;;;;;;;;;;;;23.05;50.42;101263.66;7286366;19;153588;-60
2022/08/22 01:20:09;;;;;;;;;;;;;;;23.05;50.50;101264.47;7278703;19;152982;-60
2022/08/22 01:22:39;;;;;;;;;;;;;;;23.04;50.71;101265.63;7283325;19;152321;-60
2022/08/22 01:25:24;;;;;;;;;;;;;;;23.02;50.58;101265.13;7293105;19;153897;-60
2022/08/22 01:28:12;;;;;;;;;;;;;;;23.02;50.54;101272.75;7284014;19;153607;-60
2022/08/22 01:30:44;;;;;;;;;;;;;;;23.02;50.70;101262.31;7283649;19;153177;-60
2022/08/22 01:33:28;;;;;;;;;;;;;;;22.99;50.67;101262.09;7282350;19;154076;-60
2022/08/22 01:36:00;;;;;;;;;;;;;;;22.99;50.69;101281.81;7280725;19;153848;-60
2022/08/22 01:38:43;;;;;;;;;;;;;;;22.98;50.83;101286.66;7284241;19;152692;-60
2022/08/22 01:41:19;;;;;;;;;;;;;;;22.99;50.42;101293.09;7281698;19;154334;-60
2022/08/22 01:43:46;;;;;;;;;;;;;;;23.03;50.59;101305.44;7283929;19;152875;-60
2022/08/22 01:46:44;;;;;;;;;;;;;;;23.00;50.64;101304.06;7284953;19;152673;-60
2022/08/22 01:49:35;;;;;;;;;;;;;;;23.00;50.69;101306.88;7288005;19;152288;-60
2022/08/22 01:52:10;;;;;;;;;;;;;;;22.98;50.87;101300.75;7282948;19;152672;-60
2022/08/22 01:54:49;;;;;;;;;;;;;;;22.94;50.64;101298.88;7280300;19;153905;-60
2022/08/22 01:57:18;;;;;;;;;;;;;;;22.95;50.46;101278.81;7285127;19;151955;-60
2022/08/22 02:00:08;;;;;;;;;;;;;;;23.03;50.55;101277.25;7282179;19;152974;-60
2022/08/22 02:02:54;;;;;;;;;;;;;;;22.94;50.56;101259.41;7282788;19;154526;-60
2022/08/22 02:05:30;;;;;;;;;;;;;;;22.91;50.63;101257.22;7279173;19;153848;-58
2022/08/22 02:07:57;;;;;;;;;;;;;;;22.94;50.67;101251.78;7282834;19;152305;-59
2022/08/22 02:10:43;;;;;;;;;;;;;;;22.94;50.93;101250.97;7290384;19;153365;-59
2022/08/22 02:13:25;;;;;;;;;;;;;;;22.94;50.84;101243.31;7281418;19;153522;-60
2022/08/22 02:16:06;;;;;;;;;;;;;;;22.92;50.66;101241.97;7283816;19;155345;-60
2022/08/22 02:18:43;;;;;;;;;;;;;;;22.91;51.02;101232.69;7281242;19;152047;-60
2022/08/22 02:21:16;;;;;;;;;;;;;;;22.91;51.08;101231.84;7279762;19;152753;-60
2022/08/22 02:23:53;;;;;;;;;;;;;;;22.88;50.65;101235.31;7281371;19;152326;-60
2022/08/22 02:26:24;;;;;;;;;;;;;;;22.88;51.23;101238.13;7283763;19;152536;-60
2022/08/22 02:28:57;;;;;;;;;;;;;;;22.90;50.88;101242.28;7282901;19;153670;-60
2022/08/22 02:31:32;;;;;;;;;;;;;;;22.89;50.69;101239.81;7282188;19;152864;-60
2022/08/22 02:34:02;;;;;;;;;;;;;;;22.87;51.11;101237.28;7284848;19;152417;-60
2022/08/22 02:36:32;;;;;;;;;;;;;;;22.90;51.03;101228.19;7280633;19;153418;-60
2022/08/22 02:39:02;;;;;;;;;;;;;;;22.91;50.50;101229.88;7282317;19;152762;-60
2022/08/22 02:41:31;;;;;;;;;;;;;;;22.88;51.07;101232.50;7278998;19;153835;-60
2022/08/22 02:44:02;;;;;;;;;;;;;;;22.94;50.75;101239.69;7278333;19;153949;-60
2022/08/22 02:46:38;;;;;;;;;;;;;;;22.87;50.70;101228.84;7280256;19;152213;-60
2022/08/22 02:49:05;;;;;;;;;;;;;;;22.94;50.34;101222.78;7276555;19;152749;-60
2022/08/22 02:51:52;;;;;;;;;;;;;;;22.88;51.04;101229.69;7277728;19;152711;-60
2022/08/22 02:54:19;;;;;;;;;;;;;;;;;;7277081;19;152972;-60
2022/08/22 02:57:04;;;;;;;;;;;;;;;22.88;50.85;101238.97;7286786;19;181666;-60
2022/08/22 02:59:38;;;;;;;;;;;;;;;22.96;50.58;101241.03;7280756;19;152318;-60
2022/08/22 03:02:43;;;;;;;;;;;;;;;22.96;50.77;101241.03;7284173;19;153650;-60
2022/08/22 03:05:25;;;;;;;;;;;;;;;22.88;50.71;101238.97;7271994;19;154183;-60
2022/08/22 03:08:02;;;;;;;;;;;;;;;22.85;50.81;101230.31;7282171;19;153836;-60
2022/08/22 03:10:30;;;;;;;;;;;;;;;;;;7283615;19;152673;-60
2022/08/22 03:12:57;;;;;;;;;;;;;;;22.86;51.10;101237.59;7280016;19;183379;-60
2022/08/22 03:15:39;;;;;;;;;;;;;;;22.85;50.67;101244.41;7289213;19;152535;-60
2022/08/22 03:18:32;;;;;;;;;;;;;;;22.84;50.69;101231.47;7289071;19;153593;-60
2022/08/22 03:21:19;;;;;;;;;;;;;;;22.83;50.91;101230.63;7292394;19;153813;-60
2022/08/22 03:23:51;;;;;;;;;;;;;;;22.84;50.88;101231.47;7288568;19;153915;-60
2022/08/22 03:26:24;;;;;;;;;;;;;;;22.81;50.75;101226.44;7287819;19;154028;-60
2022/08/22 03:29:04;;;;;;;;;;;;;;;22.82;51.06;101219.66;7287284;19;153058;-60
2022/08/22 03:31:31;;;;;;;;;;;;;;;22.80;51.29;101234.09;7289488;19;152413;-60
2022/08/22 03:34:15;;;;;;;;;;;;;;;22.74;51.60;101226.91;7282935;19;154627;-60
2022/08/22 03:36:47;;;;;;;;;;;;;;;22.77;51.21;101215.00;7289552;19;152156;-60
2022/08/22 03:39:23;;;;;;;;;;;;;;;22.85;50.80;101216.25;7287789;19;151910;-60
2022/08/22 03:41:59;;;;;;;;;;;;;;;22.81;50.92;101215.19;7287497;19;153938;-60
2022/08/22 03:44:26;;;;;;;;;;;;;;;22.75;51.58;101214.50;7296416;19;152343;-60
2022/08/22 03:47:11;;;;;;;;;;;;;;;22.78;51.35;101233.56;7288545;19;154001;-60
2022/08/22 03:49:49;;;;;;;;;;;;;;;22.77;51.28;101231.88;7285130;19;153070;-60
2022/08/22 03:52:16;;;;;;;;;;;;;;;22.75;51.54;101220.13;7289570;19;153898;-60
2022/08/22 03:54:56;;;;;;;;;;;;;;;22.78;51.29;101230.75;7285688;19;153638;-60
2022/08/22 03:57:35;;;;;;;;;;;;;;;22.74;51.13;101234.50;7287960;19;152553;-60
2022/08/22 04:00:02;;;;;;;;;;;;;;;22.74;51.23;101246.63;7287326;19;153572;-60
2022/08/22 04:02:47;;;;;;;;;;;;;;;22.77;51.42;101245.97;7285771;19;153472;-60
2022/08/22 04:05:19;;;;;;;;;;;;;;;22.79;51.44;101248.50;7290971;19;152306;-60
2022/08/22 04:08:05;;;;;;;;;;;;;;;22.75;51.66;101242.66;7284461;19;153389;-60
2022/08/22 04:10:50;;;;;;;;;;;;;;;22.74;51.54;101234.50;7285724;19;152758;-60
2022/08/22 04:13:26;;;;;;;;;;;;;;;22.73;51.58;101246.94;7287579;19;152706;-60
2022/08/22 04:15:53;;;;;;;;;;;;;;;22.76;51.43;101243.50;7286600;19;154013;-60
2022/08/22 04:18:34;;;;;;;;;;;;;;;22.73;51.55;101242.13;7286982;19;151847;-60
2022/08/22 04:21:07;;;;;;;;;;;;;;;22.75;51.59;101244.63;7285035;19;153585;-60
2022/08/22 04:23:33;;;;;;;;;;;;;;;22.73;51.56;101242.13;7284307;19;154206;-60
2022/08/22 04:26:43;;;;;;;;;;;;;;;22.79;51.46;101243.69;7287739;19;151955;-60
2022/08/22 04:29:17;;;;;;;;;;;;;;;22.78;51.60;101246.81;7287401;19;153659;-59
2022/08/22 04:31:53;;;;;;;;;;;;;;;22.73;51.54;101239.31;7283951;19;154373;-60
2022/08/22 04:34:24;;;;;;;;;;;;;;;22.72;51.43;101240.44;7280528;19;153948;-60
2022/08/22 04:36:57;;;;;;;;;;;;;;;22.71;51.34;101238.81;7284761;19;155103;-60
2022/08/22 04:39:29;;;;;;;;;;;;;;;22.70;51.58;101239.94;7286755;19;153261;-60
2022/08/22 04:42:06;;;;;;;;;;;;;;;22.71;51.77;101241.63;7286919;19;153026;-60
2022/08/22 04:45:01;;;;;;;;;;;;;;;22.72;51.47;101248.06;7285134;19;155306;-60
2022/08/22 04:47:35;;;;;;;;;;;;;;;22.71;51.71;101261.34;7287178;19;152762;-60
2022/08/22 04:50:20;;;;;;;;;;;;;;;22.72;51.63;101265.81;7283824;19;153348;-60
2022/08/22 04:52:47;;;;;;;;;;;;;;;22.68;51.74;101263.91;7289781;19;154405;-60
2022/08/22 04:55:29;;;;;;;;;;;;;;;22.67;51.88;101279.97;7288050;19;153543;-60
2022/08/22 04:58:04;;;;;;;;;;;;;;;22.69;51.94;101282.47;7285526;19;153779;-60
2022/08/22 05:01:04;;;;;;;;;;;;;;;22.69;51.64;101288.13;7286266;19;152468;-60
2022/08/22 05:03:35;;;;;;;;;;;;;;;22.68;52.00;101295.72;7283339;19;152875;-60
2022/08/22 05:06:04;;;;;;;;;;;;;;;22.70;51.51;101285.03;7281403;19;153812;-60
2022/08/22 05:08:33;;;;;;;;;;;;;;;22.65;52.09;101273.00;7286586;19;153706;-60
2022/08/22 05:11:01;;;;;;;;;;;;;;;22.70;52.09;101270.09;7286078;19;152724;-60
2022/08/22 05:13:41;;;;;;;;;;;;;;;22.64;52.06;101260.91;7282299;19;154217;-60
2022/08/22 05:16:13;;;;;;;;;;;;;;;22.68;51.68;101259.09;7293553;19;151865;-60
2022/08/22 05:18:59;;;;;;;;;;;;;;;22.72;51.78;101251.72;7285749;19;152236;-60
2022/08/22 05:21:29;;;;;;;;;;;;;;;22.70;51.92;101251.22;7286366;19;152248;-60
2022/08/22 05:24:02;;;;;;;;;;;;;;;22.68;51.88;101247.00;7282525;19;154076;-60
2022/08/22 05:26:34;;;;;;;;;;;;;;;22.66;51.68;101243.69;7285830;19;152615;-60
2022/08/22 05:29:02;;;;;;;;;;;;;;;22.62;52.08;101247.13;7285064;19;152077;-60
2022/08/22 05:31:32;;;;;;;;;;;;;;;22.67;51.76;101248.19;7283772;19;153842;-60
2022/08/22 05:34:07;;;;;;;;;;;;;;;22.65;52.20;101245.66;7280524;19;153041;-60
2022/08/22 05:36:38;;;;;;;;;;;;;;;22.69;51.60;101241.06;7283049;19;152470;-60
2022/08/22 05:39:08;;;;;;;;;;;;;;;22.61;52.16;101237.03;7291250;19;152623;-60
2022/08/22 05:41:37;;;;;;;;;;;;;;;22.63;52.05;101237.53;7286009;19;152690;-60
2022/08/22 05:44:06;;;;;;;;;;;;;;;22.63;52.20;101237.53;7284714;19;152956;-59
2022/08/22 05:46:35;;;;;;;;;;;;;;;22.59;52.23;101239.31;7284514;19;152154;-59
2022/08/22 05:49:03;;;;;;;;;;;;;;;22.61;51.80;101242.66;7283517;19;153991;-60
2022/08/22 05:51:38;;;;;;;;;;;;;;;22.59;52.27;101244.94;7285330;19;152402;-59
2022/08/22 05:54:11;;;;;;;;;;;;;;;22.61;51.90;101239.84;7281379;19;153794;-59
2022/08/22 05:56:40;;;;;;;;;;;;;;;22.61;52.01;101241.81;7286415;19;152500;-59
2022/08/22 05:59:10;;;;;;;;;;;;;;;22.63;51.78;101234.69;7284153;19;154398;-59
2022/08/22 06:01:50;;;;;;;;;;;;;;;22.65;52.01;101234.41;7291606;19;153531;-59
2022/08/22 06:04:29;;;;;;;;;;;;;;;22.61;52.00;101239.00;7280958;19;154500;-59
2022/08/22 06:07:01;;;;;;;;;;;;;;;22.56;51.88;101239.94;7283362;19;153966;-59
2022/08/22 06:09:31;;;;;;;;;;;;;;;22.53;52.13;101248.19;7283710;19;152201;-60
2022/08/22 06:12:04;;;;;;;;;;;;;;;22.52;52.39;101253.00;7283734;19;153467;-59
2022/08/22 06:14:46;;;;;;;;;;;;;;;22.56;52.51;101258.81;7280085;19;153107;-59
2022/08/22 06:17:19;;;;;;;;;;;;;;;22.55;52.50;101252.34;7284782;19;151924;-59
2022/08/22 06:19:48;;;;;;;;;;;;;;;22.55;52.36;101249.53;7280107;19;154999;-59
2022/08/22 06:22:20;;;;;;;;;;;;;;;22.54;52.56;101247.03;7291096;19;152701;-60
2022/08/22 06:24:48;;;;;;;;;;;;;;;22.54;52.35;101241.41;7283269;19;153277;-59
2022/08/22 06:27:18;;;;;;;;;;;;;;;22.52;52.55;101235.25;7283695;19;152620;-59
2022/08/22 06:29:50;;;;;;;;;;;;;;;22.54;52.14;101242.22;7280192;19;154533;-59
2022/08/22 06:32:21;;;;;;;;;;;;;;;22.51;52.33;101228.78;7284298;19;152373;-60
2022/08/22 06:35:28;;;;;;;;;;;;;;;22.55;52.50;101229.81;7277028;19;157000;-59
2022/08/22 06:37:58;;;;;;;;;;;;;;;22.54;52.42;101222.53;7282038;19;152435;-60
2022/08/22 06:40:27;;;;;;;;;;;;;;;22.52;52.36;101224.00;7283892;19;154239;-60
2022/08/22 06:42:54;;;;;;;;;;;;;;;22.52;52.54;101215.53;7280466;19;153023;-59
2022/08/22 06:45:25;;;;;;;;;;;;;;;22.54;52.50;101213.22;7291945;19;151943;-60
2022/08/22 06:47:57;;;;;;;;;;;;;;;22.54;51.98;101211.25;7282285;19;153863;-59
2022/08/22 06:50:32;;;;;;;;;;;;;;;22.56;52.12;101214.59;7281658;19;155428;-60
2022/08/22 06:53:06;;;;;;;;;;;;;;;22.60;51.85;101203.53;7283252;19;153001;-59
2022/08/22 06:55:34;;;;;;;;;;;;;;;22.53;52.31;101201.13;7278878;19;152394;-59
2022/08/22 06:58:03;;;;;;;;;;;;;;;22.55;52.26;101198.84;7283634;19;152798;-59
2022/08/22 07:00:32;;;;;;;;;;;;;;;22.58;52.43;101206.66;7283254;19;153475;-59
2022/08/22 07:03:05;;;;;;;;;;;;;;;22.55;52.44;101201.66;7282087;19;154233;-59
2022/08/22 07:05:36;;;;;;;;;;;;;;;22.56;52.50;101205.31;7278302;19;153222;-59
2022/08/22 07:08:07;;;;;;;;;;;;;;;22.53;51.96;101206.75;7289495;19;152634;-59
2022/08/22 07:10:36;;;;;;;;;;;;;;;22.58;52.05;101212.28;7280670;19;152746;-59
2022/08/22 07:13:18;;;;;;;;;;;;;;;22.54;52.35;101205.63;7282935;19;153707;-59
2022/08/22 07:15:52;;;;;;;;;;;;;;;22.58;52.27;101205.81;7281455;19;153365;-59
2022/08/22 07:18:23;;;;;;;;;;;;;;;22.57;52.39;101205.00;7282111;19;152184;-59
2022/08/22 07:20:51;;;;;;;;;;;;;;;22.54;52.51;101201.97;7279901;19;153229;-60
2022/08/22 07:23:35;;;;;;;;;;;;;;;22.52;52.07;101195.84;7279894;19;152708;-60
2022/08/22 07:26:21;;;;;;;;;;;;;;;22.58;52.06;101206.66;7282065;19;152539;-59
2022/08/22 07:28:54;;;;;;;;;;;;;;;22.52;52.62;101205.13;7281854;19;154179;-59
2022/08/22 07:31:24;;;;;;;;;;;;;;;22.53;52.63;101195.50;7289211;19;154313;-59
2022/08/22 07:33:52;;;;;;;;;;;;;;;22.57;52.14;101201.34;7280266;19;153342;-60
2022/08/22 07:36:22;;;;;;;;;;;;;;;22.59;51.92;101207.50;7280101;19;153769;-59
2022/08/22 07:39:01;;;;;;;;;;;;;;;22.51;52.54;101203.44;7280892;19;152514;-59
2022/08/22 07:41:35;;;;;;;;;;;;;;;22.55;51.87;101212.94;7281472;19;152011;-60
2022/08/22 07:44:04;;;;;;;;;;;;;;;22.53;52.36;101208.78;7280300;19;153745;-59
2022/08/22 07:46:36;;;;;;;;;;;;;;;22.52;52.39;101216.38;7282466;19;153309;-59
2022/08/22 07:49:06;;;;;;;;;;;;;;;22.50;52.36;101212.19;7275721;19;153163;-59
2022/08/22 07:51:43;;;;;;;;;;;;;;;22.52;52.19;101213.56;7280210;19;152846;-60
2022/08/22 07:54:13;;;;;;;;;;;;;;;22.52;51.56;101213.56;7286784;19;152609;-59
2022/08/22 07:57:00;;;;;;;;;;;;;;;22.51;51.46;101220.34;7254750;19;153997;-60
2022/08/22 07:59:28;;;;;;;;;;;;;;;22.49;51.85;101218.97;7279974;19;153890;-59
2022/08/22 08:01:57;;;;;;;;;;;;;;;22.45;51.87;101221.59;7286765;19;153385;-59
2022/08/22 08:04:27;;;;;;;;;;;;;;;22.47;51.29;101218.47;7280946;19;153953;-59
2022/08/22 08:06:57;;;;;;;;;;;;;;;22.50;51.18;101229.94;7286168;19;152547;-59
2022/08/22 08:09:27;;;;;;;;;;;;;;;22.54;50.94;101221.69;7283903;19;154168;-59
2022/08/22 08:11:54;;;;;;;;;;;;;;;22.51;51.25;101222.31;7285826;19;152600;-59
2022/08/22 08:14:23;;;;;;;;;;;;;;;22.53;50.90;101225.66;7286280;19;152282;-60
2022/08/22 08:16:54;;;;;;;;;;;;;;;22.53;50.56;101228.47;7294135;19;153741;-60
2022/08/22 08:19:21;;;;;;;;;;;;;;;22.57;51.15;101221.06;7283950;19;152038;-59
2022/08/22 08:21:50;;;;;;;;;;;;;;;22.61;50.69;101220.13;7287883;19;152814;-60
2022/08/22 08:24:19;;;;;;;;;;;;;;;22.52;50.97;101229.63;7284093;19;153198;-59
2022/08/22 08:29:36;;;;;;;;;;;;;;;22.51;50.92;101225.97;7281889;19;153957;-59
2022/08/22 08:32:04;;;;;;;;;;;;;;;22.50;50.98;101229.09;7283832;19;153227;-59
2022/08/22 08:34:34;;;;;;;;;;;;;;;22.54;50.66;101222.53;7280611;19;153330;-59
2022/08/22 08:37:10;;;;;;;;;;;;;;;22.49;51.33;101219.81;7289628;19;152582;-59
2022/08/22 08:39:42;;;;;;;;;;;;;;;22.51;51.17;101223.16;7268285;19;153014;-60
2022/08/22 08:42:27;;;;;;;;;;;;;;;22.51;50.96;101225.97;7282257;19;153284;-59
2022/08/22 08:45:13;;;;;;;;;;;;;;;22.46;51.32;101212.00;7283164;19;154009;-60
2022/08/22 08:47:43;;;;;;;;;;;;;;;22.49;50.90;101194.47;7282840;19;153012;-59
2022/08/22 08:50:13;;;;;;;;;;;;;;;22.56;51.16;101194.88;7282778;19;154274;-60
2022/08/22 08:53:00;;;;;;;;;;;;;;;22.51;50.90;101191.34;7283566;19;153801;-60
2022/08/22 08:55:30;;;;;;;;;;;;;;;22.51;50.82;101175.28;7282784;19;152832;-59
2022/08/22 08:57:58;;;;;;;;;;;;;;;22.50;51.17;101170.78;7285429;19;153649;-59
2022/08/22 09:00:45;;;;;;;;;;;;;;;22.53;51.47;101170.16;7290808;19;152351;-59
2022/08/22 09:03:34;;;;;;;;;;;;;;;22.54;51.16;101183.09;7285002;19;152500;-59
2022/08/22 09:06:27;;;;;;;;;;;;;;;22.51;51.24;101180.91;7281047;19;154120;-60
2022/08/22 09:09:13;;;;;;;;;;;;;;;22.53;51.31;101170.16;7280294;19;152251;-59
2022/08/22 09:11:59;;;;;;;;;;;;;;;22.55;51.22;101173.50;7282365;19;152621;-59
2022/08/22 09:14:35;;;;;;;;;;;;;;;22.59;51.21;101182.13;7283155;19;155071;-60
2022/08/22 09:17:01;;;;;;;;;;;;;;;22.61;51.34;101169.44;7285066;19;152343;-59
2022/08/22 09:19:40;;;;;;;;;;;;;;;22.66;51.00;101181.72;7281363;19;153248;-59
2022/08/22 09:22:10;;;;;;;;;;;;;;;22.69;50.79;101170.66;7282506;19;153072;-59
2022/08/22 09:24:58;;;;;;;;;;;;;;;22.73;50.93;101163.25;7290879;19;152826;-59
2022/08/22 09:27:33;;;;;;;;;;;;;;;22.65;50.75;101175.25;7278082;19;155998;-59
2022/08/22 09:30:09;;;;;;;;;;;;;;;22.70;50.82;101165.88;7282864;19;153159;-59
2022/08/22 09:32:37;;;;;;;;;;;;;;;22.65;50.92;101171.59;7281623;19;152632;-60
2022/08/22 09:35:11;;;;;;;;;;;;;;;22.66;51.02;101171.28;7277254;19;153972;-59
2022/08/22 09:37:48;;;;;;;;;;;;;;;22.69;50.39;101178.25;7281972;19;152362;-59
2022/08/22 09:40:24;;;;;;;;;;;;;;;22.71;50.50;101178.81;7277714;19;153231;-59
2022/08/22 09:42:57;;;;;;;;;;;;;;;22.72;50.02;101180.47;7277608;19;153137;-60
2022/08/22 09:45:24;;;;;;;;;;;;;;;22.72;49.83;101178.47;7281793;19;152265;-59
2022/08/22 09:47:59;;;;;;;;;;;;;;;22.76;49.89;101184.34;7288265;19;152517;-60
2022/08/22 09:50:33;;;;;;;;;;;;;;;22.77;49.33;101183.16;7280743;19;152904;-60
2022/08/22 09:53:14;;;;;;;;;;;;;;;22.78;49.00;101177.22;7283006;19;153169;-59
2022/08/22 09:55:49;;;;;;;;;;;;;;;22.81;49.35;101175.72;7279500;19;155432;-59
2022/08/22 09:58:34;;;;;;;;;;;;;;;22.76;49.25;101182.31;7282447;19;152213;-59
2022/08/22 10:01:22;;;;;;;;;;;;;;;22.79;48.88;101180.88;7282055;19;154000;-59
2022/08/22 10:04:07;;;;;;;;;;;;;;;22.76;48.88;101173.88;7279795;19;152385;-59
2022/08/22 10:06:56;;;;;;;;;;;;;;;22.75;48.79;101186.31;7281980;19;152798;-60
2022/08/22 10:09:33;;;;;;;;;;;;;;;22.74;48.18;101192.25;7281097;19;152809;-60
2022/08/22 10:12:05;;;;;;;;;;;;;;;22.76;48.88;101185.13;7288651;19;153562;-59
2022/08/22 10:14:39;;;;;;;;;;;;;;;22.73;49.11;101190.59;7280661;19;152744;-60
2022/08/22 10:17:29;;;;;;;;;;;;;;;22.70;49.07;101191.22;7281338;19;153965;-60
2022/08/22 10:20:03;;;;;;;;;;;;;;;22.74;49.10;101183.81;7277415;19;153962;-59
2022/08/22 10:22:32;;;;;;;;;;;;;;;22.72;49.23;101174.81;7280223;19;152647;-60
2022/08/22 10:25:18;;;;;;;;;;;;;;;22.75;49.29;101182.66;7278449;19;153026;-59
2022/08/22 10:27:47;;;;;;;;;;;;;;;22.72;49.29;101178.47;7279119;19;152404;-59
2022/08/22 10:30:14;;;;;;;;;;;;;;;22.80;50.11;101182.53;7281348;19;152631;-60
2022/08/22 10:32:44;;;;;;;;;;;;;;;22.75;50.02;101177.03;7279092;19;153480;-60
2022/08/22 10:35:31;;;;;;;;;;;;;;;22.77;50.07;101185.97;7284124;19;153076;-59
2022/08/22 10:37:59;;;;;;;;;;;;;;;22.78;50.28;101176.38;7277809;19;153246;-60
2022/08/22 10:40:45;;;;;;;;;;;;;;;22.77;50.46;101175.53;7273618;19;152917;-59
2022/08/22 10:43:22;;;;;;;;;;;;;;;22.80;50.67;101183.38;7275015;19;153822;-59
2022/08/22 10:46:05;;;;;;;;;;;;;;;22.81;50.96;101184.19;7280535;19;156476;-60
2022/08/22 10:48:50;;;;;;;;;;;;;;;22.74;51.33;101181.81;7280224;19;152444;-60
2022/08/22 10:51:17;;;;;;;;;;;;;;;22.78;50.86;101177.22;7281175;19;152734;-59
2022/08/22 10:54:04;;;;;;;;;;;;;;;22.77;51.03;101175.53;7278939;19;152306;-60
2022/08/22 10:56:37;;;;;;;;;;;;;;;22.75;51.15;101171.41;7284469;19;152311;-59
2022/08/22 10:59:18;;;;;;;;;;;;;;;22.78;51.30;101168.78;7278112;19;154348;-60
2022/08/22 11:02:06;;;;;;;;;;;;;;;22.79;50.99;101170.44;7281421;19;152903;-59
2022/08/22 11:04:51;;;;;;;;;;;;;;;22.86;50.88;101184.06;7276291;19;151869;-59
2022/08/22 11:07:27;;;;;;;;;;;;;;;22.81;51.21;101178.56;7278520;19;154222;-59
2022/08/22 11:09:58;;;;;;;;;;;;;;;22.82;51.53;101177.41;7279694;19;152668;-59
2022/08/22 11:12:26;;;;;;;;;;;;;;;22.80;51.75;101176.91;7279574;19;153442;-59
2022/08/22 11:15:11;;;;;;;;;;;;;;;22.79;51.46;101178.06;7279210;19;153579;-59
2022/08/22 11:17:57;;;;;;;;;;;;;;;22.77;51.67;101169.91;7279939;19;152718;-59
2022/08/22 11:20:27;;;;;;;;;;;;;;;22.75;52.09;101182.66;7284021;19;152506;-59
2022/08/22 11:23:10;;;;;;;;;;;;;;;22.82;51.91;101177.41;7279987;19;152485;-59
2022/08/22 11:26:00;;;;;;;;;;;;;;;22.82;51.66;101177.41;7280661;19;152539;-59
2022/08/22 11:28:33;;;;;;;;;;;;;;;22.82;52.29;101172.63;7274995;19;152397;-60
2022/08/22 11:31:06;;;;;;;;;;;;;;;22.83;51.62;101157.38;7277557;19;152166;-59
2022/08/22 11:33:36;;;;;;;;;;;;;;;22.82;51.64;101149.25;7281051;19;152915;-60
2022/08/22 11:36:25;;;;;;;;;;;;;;;22.84;52.13;101158.22;7281410;19;153369;-60
2022/08/22 11:38:56;;;;;;;;;;;;;;;22.85;52.52;101171.16;7284345;19;152302;-59
2022/08/22 11:41:26;;;;;;;;;;;;;;;22.91;52.21;101161.41;7281261;19;157702;-60
2022/08/22 11:43:58;;;;;;;;;;;;;;;22.84;52.46;101167.50;7286668;19;152623;-59
2022/08/22 11:46:39;;;;;;;;;;;;;;;22.82;52.81;101157.69;7285350;19;153239;-60
2022/08/22 11:49:28;;;;;;;;;;;;;;;22.85;52.19;101154.25;7280653;19;154386;-59
2022/08/22 11:51:58;;;;;;;;;;;;;;;;;;7286796;19;151925;-59
2022/08/22 11:54:39;;;;;;;;;;;;;;;22.85;52.25;101148.63;7282719;19;182710;-60
2022/08/22 11:57:12;;;;;;;;;;;;;;;22.83;52.38;101145.28;7279677;19;153928;-60
2022/08/22 11:59:42;;;;;;;;;;;;;;;22.88;52.35;101131.91;7285200;19;152189;-59
2022/08/22 12:02:23;;;;;;;;;;;;;;;22.85;52.15;101120.44;7285168;19;151665;-59
2022/08/22 12:05:02;;;;;;;;;;;;;;;22.84;52.82;101113.13;7277830;19;154115;-59
2022/08/22 12:07:35;;;;;;;;;;;;;;;22.85;52.60;101128.91;7290699;19;155224;-60
2022/08/22 12:10:27;;;;;;;;;;;;;;;22.85;52.72;101131.72;7281308;19;153728;-59
2022/08/22 12:13:02;;;;;;;;;;;;;;;22.86;52.11;101127.72;7283564;19;153015;-60
2022/08/22 12:15:37;;;;;;;;;;;;;;;22.91;52.87;101130.41;7284961;19;153974;-59
2022/08/22 12:18:09;;;;;;;;;;;;;;;22.88;52.20;101123.44;7283478;19;153628;-60
2022/08/22 12:20:54;;;;;;;;;;;;;;;22.86;52.99;101127.72;7280958;19;152667;-59
2022/08/22 12:23:39;;;;;;;;;;;;;;;22.87;53.06;101115.31;7282448;19;152960;-60
2022/08/22 12:26:17;;;;;;;;;;;;;;;22.88;52.59;101106.53;7282707;19;154420;-59
2022/08/22 12:28:53;;;;;;;;;;;;;;;22.88;52.85;101109.34;7283165;19;152613;-59
2022/08/22 12:31:40;;;;;;;;;;;;;;;22.88;53.29;101095.28;7292581;19;152928;-60
2022/08/22 12:34:09;;;;;;;;;;;;;;;22.91;52.89;101086.16;7281516;19;153159;-60
2022/08/22 12:36:59;;;;;;;;;;;;;;;22.90;52.89;101090.13;7280990;19;152669;-59
2022/08/22 12:39:42;;;;;;;;;;;;;;;22.90;52.69;101090.13;7280227;19;153873;-59
2022/08/22 12:42:29;;;;;;;;;;;;;;;22.91;53.34;101085.31;7279975;19;152194;-60
2022/08/22 12:44:58;;;;;;;;;;;;;;;22.94;53.31;101093.97;7278177;19;153532;-60
2022/08/22 12:47:44;;;;;;;;;;;;;;;22.91;53.83;101100.25;7282637;19;153431;-60
2022/08/22 12:50:18;;;;;;;;;;;;;;;22.96;53.47;101107.75;7277543;19;152687;-60
2022/08/22 12:53:09;;;;;;;;;;;;;;;22.99;53.40;101109.91;7282252;19;154193;-60
2022/08/22 12:55:37;;;;;;;;;;;;;;;22.95;53.83;101098.44;7288451;19;152528;-60
2022/08/22 12:58:21;;;;;;;;;;;;;;;23.01;53.33;101096.34;7282830;19;152890;-60
2022/08/22 13:00:49;;;;;;;;;;;;;;;22.98;53.04;101113.91;7282749;19;153956;-60
2022/08/22 13:03:27;;;;;;;;;;;;;;;22.97;53.58;101109.41;7284679;19;151828;-60
2022/08/22 13:05:56;;;;;;;;;;;;;;;23.02;53.37;101115.75;7277469;19;152865;-60
2022/08/22 13:08:26;;;;;;;;;;;;;;;22.99;53.41;101121.19;7280678;19;153195;-60
2022/08/22 13:11:09;;;;;;;;;;;;;;;22.98;53.85;101113.91;7284010;19;153045;-60
2022/08/22 13:13:50;;;;;;;;;;;;;;;23.00;53.68;101115.22;7281315;19;155710;-60
2022/08/22 13:16:23;;;;;;;;;;;;;;;23.01;53.31;101099.16;7289522;19;154125;-60